Centerton, Ohio
Current Conditions -  °F | °C
As of 7:52 AM on Monday 22 Dec 2014 (Local Time) from KMFD Reporting Station
Haze Haze  
Wind Chill: 22°   Ceiling: Unl
Heat Index: 22°   Visibility: 4mi
Dew Point: 20°   Wind: 3mph
Humidity: 92%   Direction: 120°ESE
Pressure: 30.07"   Gusts: NA
Location:  41.0768°N, 82.7214°W
Report Text: KMFD 221252Z 12003KT 4SM BR CLR M06/M07 A3007 RMK AO2 SLP200 T10561067
Loading
Personal Weather Stations






























Interactive Weather Map New forecast layout! Learn more

10-Day Weather Forecast

Advertisements
Track Severe Weather on mobile